createdAt,value
2022-10-17T00:00:38.393Z,95.19
2022-10-17T00:03:05.412Z,95.83
2022-10-17T00:05:32.016Z,95.77
2022-10-17T00:07:58.634Z,95.77
2022-10-17T00:10:25.443Z,95.84
2022-10-17T00:12:52.461Z,95.90
2022-10-17T00:15:20.603Z,96.39
2022-10-17T00:17:47.413Z,96.05
2022-10-17T00:20:14.818Z,94.99
2022-10-17T00:22:41.540Z,95.60
2022-10-17T00:25:08.609Z,95.67
2022-10-17T00:27:37.151Z,96.03
2022-10-17T00:30:05.208Z,96.15
2022-10-17T00:32:32.074Z,95.89
2022-10-17T00:34:58.837Z,96.10
2022-10-17T00:37:25.892Z,96.02
2022-10-17T00:39:52.557Z,95.97
2022-10-17T00:42:19.075Z,96.56
2022-10-17T00:44:47.574Z,96.66
2022-10-17T00:47:19.638Z,96.55
2022-10-17T00:49:46.306Z,95.79
2022-10-17T00:52:17.869Z,96.02
2022-10-17T00:54:49.511Z,95.97
2022-10-17T00:57:17.353Z,95.91
2022-10-17T00:59:49.312Z,96.64
2022-10-17T01:02:19.254Z,96.38
2022-10-17T01:04:48.973Z,96.08
2022-10-17T01:07:15.622Z,95.83
2022-10-17T01:09:44.567Z,96.22
2022-10-17T01:12:36.611Z,95.46
2022-10-17T01:15:03.118Z,96.08
2022-10-17T01:17:50.835Z,96.24
2022-10-17T01:20:39.010Z,95.91
2022-10-17T01:23:15.783Z,95.81
2022-10-17T01:26:05.144Z,95.86
2022-10-17T01:29:01.141Z,95.69
2022-10-17T01:31:48.522Z,95.75
2022-10-17T01:34:21.314Z,95.65
2022-10-17T01:37:01.592Z,96.02
2022-10-17T01:39:54.166Z,96.51
2022-10-17T01:42:48.947Z,96.32
2022-10-17T01:45:25.575Z,96.85
2022-10-17T01:47:54.560Z,97.22
2022-10-17T01:50:28.634Z,96.76
2022-10-17T01:53:01.749Z,96.85
2022-10-17T01:55:34.196Z,97.19
2022-10-17T01:58:10.259Z,96.73
2022-10-17T02:00:39.921Z,96.86
2022-10-17T02:03:09.484Z,97.21
2022-10-17T02:05:39.745Z,96.47
2022-10-17T02:08:06.922Z,97.07
2022-10-17T02:10:44.934Z,97.53
2022-10-17T02:13:42.302Z,97.29
2022-10-17T02:16:27.706Z,97.54
2022-10-17T02:19:12.739Z,97.72
2022-10-17T02:21:55.600Z,98.28
2022-10-17T02:24:48.703Z,98.76
2022-10-17T02:27:17.562Z,97.67
2022-10-17T02:29:50.389Z,97.01
2022-10-17T02:32:28.438Z,96.90
2022-10-17T02:35:00.461Z,96.75
2022-10-17T02:37:31.494Z,97.20
2022-10-17T02:40:00.604Z,97.43
2022-10-17T02:42:29.037Z,97.00
2022-10-17T02:45:01.149Z,97.21
2022-10-17T02:47:33.631Z,97.32
2022-10-17T02:50:02.014Z,97.23
2022-10-17T02:52:34.919Z,97.10
2022-10-17T02:55:24.478Z,96.90
2022-10-17T02:57:56.894Z,96.49
2022-10-17T03:00:26.549Z,96.65
2022-10-17T03:02:54.308Z,96.89
2022-10-17T03:05:27.257Z,96.53
2022-10-17T03:07:54.826Z,96.78
2022-10-17T03:10:22.467Z,96.71
2022-10-17T03:12:49.105Z,97.46
2022-10-17T03:15:15.727Z,97.49
2022-10-17T03:17:42.400Z,97.30
2022-10-17T03:20:09.297Z,97.42
2022-10-17T03:22:35.854Z,98.03
2022-10-17T03:25:02.399Z,98.30
2022-10-17T03:27:29.415Z,97.64
2022-10-17T03:29:56.091Z,97.38
2022-10-17T03:32:22.638Z,97.39
2022-10-17T03:34:49.387Z,97.40
2022-10-17T03:37:15.906Z,97.11
2022-10-17T03:39:42.465Z,97.38
2022-10-17T03:42:09.353Z,97.09
2022-10-17T03:44:35.865Z,97.80
2022-10-17T03:47:03.030Z,97.65
2022-10-17T03:49:29.751Z,97.30
2022-10-17T03:51:56.307Z,96.98
2022-10-17T03:54:22.821Z,97.36
2022-10-17T03:56:49.511Z,97.44
2022-10-17T03:59:16.825Z,98.94
2022-10-17T04:01:43.865Z,98.61
2022-10-17T04:04:10.748Z,98.24
2022-10-17T04:06:38.199Z,98.00
2022-10-17T04:09:06.106Z,97.22
2022-10-17T04:11:33.001Z,97.15
2022-10-17T04:13:59.953Z,97.61
2022-10-17T04:16:27.229Z,97.02
2022-10-17T04:18:56.103Z,98.05
2022-10-17T04:21:24.791Z,98.97
2022-10-17T04:23:55.583Z,98.18
2022-10-17T04:26:22.138Z,98.12
2022-10-17T04:28:48.814Z,98.40
2022-10-17T04:31:16.099Z,98.07
2022-10-17T04:33:42.829Z,97.73
2022-10-17T04:36:14.375Z,98.51
2022-10-17T04:38:41.219Z,99.43
2022-10-17T04:41:14.622Z,98.98
2022-10-17T04:43:43.430Z,98.97
2022-10-17T04:46:13.139Z,99.19
2022-10-17T04:48:40.557Z,98.75
2022-10-17T04:51:11.322Z,99.10
2022-10-17T04:53:39.396Z,99.62
2022-10-17T04:56:17.638Z,99.73
2022-10-17T04:58:45.304Z,99.50
2022-10-17T05:01:14.603Z,100.00
2022-10-17T05:03:41.714Z,100.00
2022-10-17T05:06:11.340Z,100.00
2022-10-17T05:08:38.171Z,100.00
2022-10-17T05:11:06.230Z,99.34
2022-10-17T05:13:33.400Z,99.76
2022-10-17T05:16:01.201Z,99.39
2022-10-17T05:18:28.875Z,100.00
2022-10-17T05:20:55.722Z,100.00
2022-10-17T05:23:22.457Z,100.00
2022-10-17T05:25:54.926Z,100.00
2022-10-17T05:28:22.125Z,100.00
2022-10-17T05:30:48.707Z,100.00
2022-10-17T05:33:15.669Z,100.00
2022-10-17T05:35:42.318Z,100.00
2022-10-17T05:38:08.911Z,99.92
2022-10-17T05:40:35.499Z,100.00
2022-10-17T05:43:02.040Z,100.00
2022-10-17T05:45:28.551Z,99.98
2022-10-17T05:47:55.230Z,99.98
2022-10-17T05:50:24.006Z,100.00
2022-10-17T05:52:53.834Z,100.00
2022-10-17T05:55:20.377Z,100.00
2022-10-17T05:57:47.207Z,99.61
2022-10-17T06:00:14.152Z,99.78
2022-10-17T06:02:40.862Z,100.00
2022-10-17T06:05:07.869Z,100.00
2022-10-17T06:07:36.058Z,99.64
2022-10-17T06:10:03.015Z,99.39
2022-10-17T06:12:29.805Z,99.81
2022-10-17T06:14:56.597Z,99.84
2022-10-17T06:17:23.476Z,99.65
2022-10-17T06:19:50.201Z,98.98
2022-10-17T06:22:16.724Z,98.49
2022-10-17T06:24:43.582Z,98.23
2022-10-17T06:27:11.952Z,97.84
2022-10-17T06:29:39.139Z,98.51
2022-10-17T06:32:08.633Z,98.34
2022-10-17T06:34:37.991Z,98.68
2022-10-17T06:37:04.595Z,98.38
2022-10-17T06:39:34.007Z,97.98
2022-10-17T06:42:01.550Z,97.75
2022-10-17T06:44:31.662Z,97.94
2022-10-17T06:46:59.737Z,97.58
2022-10-17T06:49:27.046Z,97.49
2022-10-17T06:51:54.064Z,97.29
2022-10-17T06:54:21.228Z,97.23
2022-10-17T06:56:47.861Z,97.09
2022-10-17T06:59:15.619Z,97.06
2022-10-17T07:01:46.153Z,96.66
2022-10-17T07:04:13.850Z,96.78
2022-10-17T07:06:40.729Z,96.83
2022-10-17T07:09:08.032Z,96.45
2022-10-17T07:11:35.282Z,96.10
2022-10-17T07:14:02.436Z,96.09
2022-10-17T07:16:29.564Z,95.98
2022-10-17T07:18:56.599Z,96.00
2022-10-17T07:21:23.318Z,95.84
2022-10-17T07:23:50.358Z,95.81
2022-10-17T07:26:18.136Z,95.41
2022-10-17T07:28:46.341Z,94.80
2022-10-17T07:31:18.203Z,94.33
2022-10-17T07:36:13.383Z,92.27
2022-10-17T07:38:40.243Z,89.82
2022-10-17T07:41:08.624Z,89.13
2022-10-17T07:43:36.818Z,87.37
2022-10-17T07:46:05.391Z,84.15
2022-10-17T07:48:32.253Z,84.24
2022-10-17T07:51:02.726Z,81.84
2022-10-17T07:53:29.625Z,82.44
2022-10-17T07:55:56.189Z,80.89
2022-10-17T07:58:22.823Z,81.97
2022-10-17T08:00:51.203Z,81.81
2022-10-17T08:03:17.957Z,80.05
2022-10-17T08:05:44.579Z,79.73
2022-10-17T08:08:11.455Z,80.62
2022-10-17T08:10:38.083Z,79.95
2022-10-17T08:13:04.704Z,78.72
2022-10-17T08:15:32.182Z,77.50
2022-10-17T08:17:59.157Z,79.00
2022-10-17T08:20:26.026Z,78.66
2022-10-17T08:22:56.206Z,78.08
2022-10-17T08:25:23.681Z,76.72
2022-10-17T08:27:50.295Z,76.86
2022-10-17T08:30:17.575Z,76.76
2022-10-17T08:32:44.199Z,77.52
2022-10-17T08:35:10.879Z,76.48
2022-10-17T08:37:37.792Z,76.39
2022-10-17T08:40:04.805Z,77.48
2022-10-17T08:43:06.292Z,77.94
2022-10-17T08:45:35.707Z,76.89
2022-10-17T08:48:05.682Z,77.61
2022-10-17T08:50:42.793Z,76.82
2022-10-17T08:53:23.086Z,75.81
2022-10-17T08:55:51.888Z,74.69
2022-10-17T08:58:24.354Z,74.11
2022-10-17T09:01:28.586Z,73.63
2022-10-17T09:04:26.214Z,72.67
2022-10-17T09:07:15.224Z,72.28
2022-10-17T09:10:19.085Z,71.98
2022-10-17T09:13:10.723Z,71.81
2022-10-17T09:15:46.018Z,71.05
2022-10-17T09:18:22.052Z,70.29
2022-10-17T09:20:53.291Z,70.62
2022-10-17T09:23:27.186Z,70.68
2022-10-17T09:25:56.115Z,70.66
2022-10-17T09:28:36.419Z,70.68
2022-10-17T09:31:07.445Z,70.50
2022-10-17T09:33:55.639Z,70.95
2022-10-17T09:36:29.635Z,70.86
2022-10-17T09:38:58.950Z,71.18
2022-10-17T09:41:46.394Z,71.05
2022-10-17T09:44:22.010Z,70.90
2022-10-17T09:47:12.998Z,70.18
2022-10-17T09:49:42.422Z,71.04
2022-10-17T09:52:22.130Z,71.90
2022-10-17T09:54:52.356Z,71.03
2022-10-17T09:57:21.132Z,71.33
2022-10-17T10:00:04.134Z,71.58
2022-10-17T10:02:32.892Z,71.42
2022-10-17T10:05:16.870Z,70.99
2022-10-17T10:07:59.678Z,71.36
2022-10-17T10:10:28.649Z,70.58
2022-10-17T10:13:21.530Z,71.17
2022-10-17T10:15:50.319Z,71.51
2022-10-17T10:18:35.853Z,71.30
2022-10-17T10:21:20.904Z,71.17
2022-10-17T10:24:10.791Z,69.97
2022-10-17T10:26:37.542Z,71.47
2022-10-17T10:29:19.152Z,70.65
2022-10-17T10:31:46.647Z,71.52
2022-10-17T10:34:29.374Z,69.72
2022-10-17T10:37:03.301Z,70.63
2022-10-17T10:39:53.521Z,71.70
2022-10-17T10:42:34.047Z,70.93
2022-10-17T10:45:47.934Z,70.84
2022-10-17T10:48:21.755Z,70.54
2022-10-17T10:50:57.561Z,71.02
2022-10-17T10:53:35.381Z,69.82
2022-10-17T10:56:23.006Z,70.22
2022-10-17T10:58:53.315Z,68.89
2022-10-17T11:01:45.808Z,67.70
2022-10-17T11:04:21.465Z,68.91
2022-10-17T11:06:50.219Z,67.64
2022-10-17T11:09:44.904Z,68.50
2022-10-17T11:15:20.983Z,68.38
2022-10-17T11:18:01.194Z,68.64
2022-10-17T11:20:36.923Z,67.72
2022-10-17T11:23:24.080Z,68.20
2022-10-17T11:25:52.940Z,67.90
2022-10-17T11:28:23.111Z,68.04
2022-10-17T11:31:03.342Z,67.58
2022-10-17T11:33:58.466Z,68.59
2022-10-17T11:36:31.504Z,68.07
2022-10-17T11:39:03.778Z,66.60
2022-10-17T11:41:55.239Z,66.95
2022-10-17T11:44:42.485Z,66.36
2022-10-17T11:47:30.302Z,66.63
2022-10-17T11:52:58.717Z,64.16
2022-10-17T11:55:27.734Z,63.96
2022-10-17T11:58:06.662Z,64.52
2022-10-17T12:01:05.160Z,64.68
2022-10-17T12:03:59.676Z,64.78
2022-10-17T12:07:03.637Z,63.70
2022-10-17T12:09:46.346Z,63.11
2022-10-17T12:12:34.401Z,63.50
2022-10-17T12:15:13.269Z,64.71
2022-10-17T12:17:44.877Z,62.81
2022-10-17T12:20:21.213Z,64.04
2022-10-17T12:22:50.029Z,62.41
2022-10-17T12:28:28.489Z,61.94
2022-10-17T12:31:16.155Z,62.08
2022-10-17T12:33:59.918Z,63.19
2022-10-17T12:36:26.404Z,61.72
2022-10-17T12:39:02.039Z,62.56
2022-10-17T12:41:41.089Z,61.92
2022-10-17T12:44:14.266Z,62.85
2022-10-17T12:46:56.011Z,62.39
2022-10-17T12:49:45.717Z,63.71
2022-10-17T12:52:24.442Z,62.39
2022-10-17T12:55:13.396Z,64.33
2022-10-17T12:58:03.621Z,63.70
2022-10-17T13:01:05.338Z,61.76
2022-10-17T13:03:44.426Z,63.33
2022-10-17T13:06:27.209Z,62.53
2022-10-17T13:09:04.446Z,61.56
2022-10-17T13:11:34.103Z,59.73
2022-10-17T13:14:03.675Z,61.06
2022-10-17T13:16:37.954Z,62.14
2022-10-17T13:19:44.036Z,59.94
2022-10-17T13:22:17.167Z,60.24
2022-10-17T13:24:44.746Z,59.76
2022-10-17T13:27:35.422Z,59.90
2022-10-17T13:30:21.345Z,59.33
2022-10-17T13:32:48.095Z,58.70
2022-10-17T13:35:17.351Z,58.50
2022-10-17T13:37:51.539Z,59.84
2022-10-17T13:40:44.454Z,59.37
2022-10-17T13:43:19.756Z,59.92
2022-10-17T13:45:49.930Z,60.72
2022-10-17T13:48:20.719Z,60.54
2022-10-17T13:50:50.885Z,60.76
2022-10-17T13:53:32.832Z,60.43
2022-10-17T13:59:08.229Z,61.24
2022-10-17T14:01:35.133Z,60.54
2022-10-17T14:04:08.867Z,62.00
2022-10-17T14:06:46.426Z,61.33
2022-10-17T14:09:27.175Z,62.38
2022-10-17T14:12:03.923Z,62.07
2022-10-17T14:14:46.033Z,61.38
2022-10-17T14:17:36.042Z,59.37
2022-10-17T14:23:17.602Z,60.12
2022-10-17T14:25:40.850Z,59.88
2022-10-17T14:28:09.354Z,60.83
2022-10-17T14:30:55.805Z,60.33
2022-10-17T14:33:29.948Z,61.64
2022-10-17T14:35:59.034Z,60.33
2022-10-17T14:38:27.429Z,60.34
2022-10-17T14:41:20.937Z,59.58
2022-10-17T14:43:58.290Z,60.35
2022-10-17T14:46:25.346Z,60.16
2022-10-17T14:48:58.961Z,61.73
2022-10-17T14:51:25.941Z,63.09
2022-10-17T14:54:25.952Z,63.80
2022-10-17T14:56:53.948Z,63.11
2022-10-17T14:59:51.643Z,62.45
2022-10-17T15:02:10.531Z,62.57
2022-10-17T15:04:37.083Z,63.25
2022-10-17T15:07:03.717Z,62.84
2022-10-17T15:09:31.174Z,62.93
2022-10-17T15:12:02.708Z,62.19
2022-10-17T15:14:29.246Z,60.76
2022-10-17T15:16:56.141Z,59.80
2022-10-17T15:19:22.707Z,57.72
2022-10-17T15:21:49.305Z,58.85
2022-10-17T15:24:16.323Z,59.28
2022-10-17T15:26:42.994Z,58.10
2022-10-17T15:29:15.218Z,58.34
2022-10-17T15:31:42.204Z,58.48
2022-10-17T15:34:08.730Z,56.14
2022-10-17T15:36:48.231Z,55.79
2022-10-17T15:39:14.808Z,56.59
2022-10-17T15:41:41.529Z,57.08
2022-10-17T15:44:08.251Z,61.17
2022-10-17T15:46:35.943Z,63.44
2022-10-17T15:49:05.785Z,65.56
2022-10-17T15:51:32.422Z,67.81
2022-10-17T15:54:01.551Z,70.57
2022-10-17T15:56:36.381Z,74.54
2022-10-17T15:59:05.821Z,74.67
2022-10-17T16:01:33.956Z,76.34
2022-10-17T16:04:00.767Z,76.94
2022-10-17T16:06:27.683Z,76.69
2022-10-17T16:08:54.227Z,77.32
2022-10-17T16:11:26.732Z,78.57
2022-10-17T16:13:55.023Z,79.38
2022-10-17T16:16:22.536Z,80.94
2022-10-17T16:18:49.580Z,81.02
2022-10-17T16:21:17.792Z,81.62
2022-10-17T16:23:45.036Z,82.14
2022-10-17T16:26:14.445Z,82.88
2022-10-17T16:28:46.098Z,82.82
2022-10-17T16:31:23.426Z,83.46
2022-10-17T16:33:52.899Z,84.90
2022-10-17T16:36:20.292Z,84.20
2022-10-17T16:38:47.975Z,85.73
2022-10-17T16:41:27.780Z,86.37
2022-10-17T16:43:56.497Z,86.31
2022-10-17T16:46:24.577Z,86.89
2022-10-17T16:48:51.528Z,87.13
2022-10-17T16:51:20.015Z,86.59
2022-10-17T16:53:50.151Z,86.64
2022-10-17T16:56:18.927Z,87.26
2022-10-17T16:58:45.898Z,87.15
2022-10-17T17:01:16.166Z,87.49
2022-10-17T17:03:45.213Z,87.04
2022-10-17T17:06:15.216Z,87.56
2022-10-17T17:08:43.402Z,87.38
2022-10-17T17:11:12.228Z,87.92
2022-10-17T17:13:39.084Z,87.93
2022-10-17T17:16:12.818Z,87.68
2022-10-17T17:18:39.958Z,87.79
2022-10-17T17:21:08.383Z,88.01
2022-10-17T17:23:37.285Z,87.65
2022-10-17T17:26:07.606Z,87.27
2022-10-17T17:28:35.139Z,87.52
2022-10-17T17:31:02.447Z,87.79
2022-10-17T17:33:30.205Z,86.94
2022-10-17T17:36:00.037Z,88.91
2022-10-17T17:38:29.641Z,87.83
2022-10-17T17:40:56.604Z,88.07
2022-10-17T17:43:23.526Z,88.13
2022-10-17T17:45:50.225Z,88.12
2022-10-17T17:48:16.854Z,88.79
2022-10-17T17:50:44.273Z,88.89
2022-10-17T17:53:13.207Z,89.02
2022-10-17T17:55:40.224Z,89.28
2022-10-17T17:58:08.236Z,89.85
2022-10-17T18:00:36.158Z,89.64
2022-10-17T18:03:02.750Z,89.56
2022-10-17T18:05:30.070Z,89.35
2022-10-17T18:07:56.912Z,89.44
2022-10-17T18:10:23.558Z,89.21
2022-10-17T18:12:50.119Z,89.39
2022-10-17T18:15:17.166Z,89.33
2022-10-17T18:17:43.742Z,89.11
2022-10-17T18:20:10.653Z,89.61
2022-10-17T18:22:37.610Z,89.43
2022-10-17T18:25:05.616Z,90.10
2022-10-17T18:27:32.371Z,89.32
2022-10-17T18:29:58.963Z,89.88
2022-10-17T18:32:25.610Z,89.37
2022-10-17T18:34:52.259Z,89.27
2022-10-17T18:37:18.825Z,89.89
2022-10-17T18:39:48.512Z,90.14
2022-10-17T18:42:15.101Z,90.24
2022-10-17T18:44:41.629Z,90.89
2022-10-17T18:47:08.228Z,90.41
2022-10-17T18:49:35.589Z,90.11
2022-10-17T18:52:02.350Z,91.13
2022-10-17T18:54:29.418Z,90.56
2022-10-17T18:56:56.350Z,91.09
2022-10-17T18:59:23.665Z,90.22
2022-10-17T19:01:50.550Z,90.94
2022-10-17T19:04:17.199Z,91.17
2022-10-17T19:06:43.908Z,92.04
2022-10-17T19:09:13.138Z,91.64
2022-10-17T19:11:40.098Z,91.08
2022-10-17T19:14:12.800Z,92.08
2022-10-17T19:16:49.073Z,92.07
2022-10-17T19:19:24.411Z,92.25
2022-10-17T19:21:51.264Z,92.31
2022-10-17T19:24:24.418Z,93.22
2022-10-17T19:26:55.765Z,93.13
2022-10-17T19:29:26.078Z,93.12
2022-10-17T19:31:53.201Z,93.29
2022-10-17T19:34:20.015Z,93.39
2022-10-17T19:36:46.849Z,93.31
2022-10-17T19:39:16.432Z,93.24
2022-10-17T19:41:44.779Z,93.31
2022-10-17T19:44:11.423Z,92.90
2022-10-17T19:46:38.261Z,93.74
2022-10-17T19:49:05.642Z,93.58
2022-10-17T19:51:32.755Z,94.04
2022-10-17T19:54:00.802Z,93.96
2022-10-17T19:56:29.495Z,93.70
2022-10-17T19:58:57.117Z,94.61
2022-10-17T20:01:27.159Z,94.07
2022-10-17T20:03:54.778Z,94.17
2022-10-17T20:06:22.294Z,93.62
2022-10-17T20:08:49.398Z,93.51
2022-10-17T20:11:20.035Z,93.56
2022-10-17T20:13:47.192Z,93.81
2022-10-17T20:16:18.054Z,93.65
2022-10-17T20:18:45.242Z,93.28
2022-10-17T20:21:14.843Z,93.54
2022-10-17T20:23:42.239Z,93.77
2022-10-17T20:26:33.665Z,93.66
2022-10-17T20:29:08.846Z,93.88
2022-10-17T20:31:35.839Z,93.89
2022-10-17T20:34:02.399Z,93.67
2022-10-17T20:36:28.989Z,94.34
2022-10-17T20:38:57.107Z,94.32
2022-10-17T20:41:24.505Z,94.37
2022-10-17T20:43:52.647Z,94.41
2022-10-17T20:46:36.405Z,94.69
2022-10-17T20:49:05.161Z,94.51
2022-10-17T20:51:31.816Z,94.62
2022-10-17T20:53:58.431Z,94.41
2022-10-17T20:56:28.440Z,94.60
2022-10-17T20:59:00.865Z,94.49
2022-10-17T21:01:28.721Z,94.85
2022-10-17T21:03:56.989Z,94.89
2022-10-17T21:06:25.686Z,95.15
2022-10-17T21:08:54.646Z,94.71
2022-10-17T21:11:26.262Z,95.10
2022-10-17T21:13:58.983Z,94.43
2022-10-17T21:16:26.839Z,94.11
2022-10-17T21:18:54.639Z,94.20
2022-10-17T21:21:28.106Z,94.12
2022-10-17T21:23:58.309Z,93.82
2022-10-17T21:26:24.888Z,94.06
2022-10-17T21:28:51.709Z,94.31
2022-10-17T21:31:26.684Z,94.53
2022-10-17T21:33:58.430Z,94.40
2022-10-17T21:36:27.082Z,94.01
2022-10-17T21:38:56.027Z,94.40
2022-10-17T21:41:25.277Z,94.24
2022-10-17T21:43:56.732Z,94.23
2022-10-17T21:46:24.303Z,93.94
2022-10-17T21:48:52.081Z,93.69
2022-10-17T21:51:19.735Z,94.08
2022-10-17T21:53:46.684Z,94.17
2022-10-17T21:56:16.483Z,94.68
2022-10-17T21:58:43.360Z,94.56
2022-10-17T22:01:18.326Z,94.10
2022-10-17T22:03:47.797Z,94.38
2022-10-17T22:09:05.234Z,94.59
2022-10-17T22:11:35.083Z,94.14
2022-10-17T22:14:07.759Z,94.77
2022-10-17T22:16:35.099Z,94.58
2022-10-17T22:19:06.217Z,94.64
2022-10-17T22:21:35.600Z,94.39
2022-10-17T22:24:05.531Z,94.42
2022-10-17T22:26:33.926Z,94.11
2022-10-17T22:29:01.059Z,94.49
2022-10-17T22:31:27.714Z,94.26
2022-10-17T22:33:54.262Z,95.05
2022-10-17T22:36:20.990Z,94.45
2022-10-17T22:38:47.508Z,94.09
2022-10-17T22:41:14.048Z,94.59
2022-10-17T22:43:40.762Z,94.11
2022-10-17T22:46:08.501Z,94.51
2022-10-17T22:48:35.071Z,94.20
2022-10-17T22:51:02.045Z,94.44
2022-10-17T22:53:29.718Z,94.49
2022-10-17T22:56:01.672Z,94.94
2022-10-17T22:58:30.402Z,95.07
2022-10-17T23:00:57.601Z,94.84
2022-10-17T23:03:25.325Z,94.85
2022-10-17T23:05:51.861Z,94.86
2022-10-17T23:08:18.976Z,95.27
2022-10-17T23:10:46.928Z,94.66
2022-10-17T23:13:14.544Z,94.87
2022-10-17T23:15:41.883Z,94.75
2022-10-17T23:18:09.873Z,94.70
2022-10-17T23:20:37.890Z,95.61
2022-10-17T23:23:05.293Z,95.69
2022-10-17T23:25:34.493Z,95.44
2022-10-17T23:28:01.608Z,95.63
2022-10-17T23:30:28.491Z,95.53
2022-10-17T23:32:55.182Z,95.48
2022-10-17T23:35:21.751Z,95.72
2022-10-17T23:37:48.335Z,95.84
2022-10-17T23:40:14.975Z,95.53
2022-10-17T23:42:41.514Z,95.61
2022-10-17T23:45:08.764Z,95.14
2022-10-17T23:47:35.414Z,95.72
2022-10-17T23:50:01.961Z,95.24
2022-10-17T23:52:28.498Z,95.01
2022-10-17T23:54:55.216Z,95.11
2022-10-17T23:57:21.787Z,94.87
2022-10-17T23:59:48.365Z,94.13
